createdAt,value
2019-02-10T00:01:02.745Z,65.98
2019-02-10T00:03:31.195Z,67.26
2019-02-10T00:05:59.630Z,68.17
2019-02-10T00:08:28.022Z,67.81
2019-02-10T00:10:56.891Z,67.70
2019-02-10T00:13:35.700Z,68.17
2019-02-10T00:16:10.132Z,67.83
2019-02-10T00:18:38.593Z,67.75
2019-02-10T00:21:07.061Z,67.14
2019-02-10T00:23:35.384Z,67.03
2019-02-10T00:26:03.887Z,67.11
2019-02-10T00:28:32.347Z,67.20
2019-02-10T00:31:00.767Z,66.91
2019-02-10T00:33:29.230Z,66.97
2019-02-10T00:35:57.622Z,67.05
2019-02-10T00:38:26.054Z,67.38
2019-02-10T00:40:54.828Z,67.79
2019-02-10T00:43:23.238Z,67.78
2019-02-10T00:45:51.647Z,67.87
2019-02-10T00:48:20.080Z,68.07
2019-02-10T00:50:48.491Z,68.21
2019-02-10T00:53:16.944Z,68.31
2019-02-10T00:55:45.332Z,68.31
2019-02-10T00:58:13.720Z,68.33
2019-02-10T01:00:42.182Z,67.78
2019-02-10T01:03:10.660Z,67.92
2019-02-10T01:05:39.067Z,68.05
2019-02-10T01:08:07.508Z,67.62
2019-02-10T01:10:35.904Z,68.08
2019-02-10T01:13:04.370Z,68.09
2019-02-10T01:15:32.758Z,67.47
2019-02-10T01:18:01.374Z,67.58
2019-02-10T01:20:29.852Z,67.57
2019-02-10T01:22:58.303Z,67.24
2019-02-10T01:25:26.703Z,66.85
2019-02-10T01:27:55.115Z,67.31
2019-02-10T01:30:23.944Z,67.36
2019-02-10T01:32:52.388Z,67.02
2019-02-10T01:35:20.869Z,66.81
2019-02-10T01:37:49.610Z,67.36
2019-02-10T01:40:18.078Z,66.82
2019-02-10T01:42:46.467Z,66.87
2019-02-10T01:45:14.865Z,66.80
2019-02-10T01:47:43.636Z,67.05
2019-02-10T01:50:12.680Z,67.52
2019-02-10T01:52:41.093Z,67.78
2019-02-10T01:55:12.273Z,67.68
2019-02-10T01:57:40.769Z,67.76
2019-02-10T02:00:12.270Z,67.40
2019-02-10T02:02:41.079Z,67.03
2019-02-10T02:05:10.231Z,67.60
2019-02-10T02:07:38.633Z,67.64
2019-02-10T02:10:09.913Z,67.38
2019-02-10T02:12:38.385Z,67.74
2019-02-10T02:15:10.170Z,67.74
2019-02-10T02:17:38.939Z,68.19
2019-02-10T02:20:09.460Z,67.88
2019-02-10T02:22:37.930Z,67.55
2019-02-10T02:25:11.440Z,68.41
2019-02-10T02:27:40.070Z,68.48
2019-02-10T02:30:11.565Z,68.57
2019-02-10T02:32:40.174Z,68.47
2019-02-10T02:35:09.211Z,68.59
2019-02-10T02:37:37.659Z,68.58
2019-02-10T02:40:08.597Z,68.42
2019-02-10T02:42:37.279Z,68.75
2019-02-10T02:45:08.306Z,68.64
2019-02-10T02:47:37.088Z,68.95
2019-02-10T02:50:07.951Z,68.91
2019-02-10T02:52:36.360Z,68.96
2019-02-10T02:55:06.503Z,68.79
2019-02-10T02:57:35.028Z,68.95
2019-02-10T03:00:03.900Z,69.06
2019-02-10T03:02:32.565Z,69.04
2019-02-10T03:05:01.375Z,68.91
2019-02-10T03:07:29.973Z,69.32
2019-02-10T03:09:58.631Z,69.33
2019-02-10T03:12:27.072Z,69.07
2019-02-10T03:14:55.504Z,68.83
2019-02-10T03:17:24.105Z,69.06
2019-02-10T03:19:54.232Z,69.30
2019-02-10T03:22:22.981Z,69.38
2019-02-10T03:24:51.630Z,69.41
2019-02-10T03:27:20.349Z,69.08
2019-02-10T03:29:49.164Z,69.72
2019-02-10T03:32:17.726Z,69.85
2019-02-10T03:34:46.339Z,70.24
2019-02-10T03:37:15.099Z,69.78
2019-02-10T03:39:43.891Z,70.23
2019-02-10T03:42:12.562Z,70.31
2019-02-10T03:44:41.020Z,69.93
2019-02-10T03:47:09.530Z,70.67
2019-02-10T03:49:38.238Z,70.66
2019-02-10T03:52:06.910Z,70.67
2019-02-10T03:54:35.599Z,70.42
2019-02-10T03:57:04.302Z,70.81
2019-02-10T03:59:33.185Z,70.85
2019-02-10T04:02:01.747Z,70.57
2019-02-10T04:04:30.519Z,70.46
2019-02-10T04:06:59.295Z,70.54
2019-02-10T04:09:27.908Z,70.67
2019-02-10T04:11:56.702Z,70.80
2019-02-10T04:14:25.356Z,71.38
2019-02-10T04:16:53.797Z,71.13
2019-02-10T04:19:22.383Z,71.34
2019-02-10T04:21:50.873Z,72.02
2019-02-10T04:24:19.283Z,71.42
2019-02-10T04:26:47.771Z,71.05
2019-02-10T04:29:16.458Z,71.49
2019-02-10T04:31:45.136Z,71.05
2019-02-10T04:34:13.962Z,71.38
2019-02-10T04:36:42.353Z,71.79
2019-02-10T04:39:11.024Z,71.49
2019-02-10T04:41:39.422Z,71.50
2019-02-10T04:44:07.844Z,71.81
2019-02-10T04:46:36.295Z,71.75
2019-02-10T04:49:05.004Z,71.34
2019-02-10T04:51:33.764Z,71.93
2019-02-10T04:54:02.184Z,71.80
2019-02-10T04:56:30.974Z,71.96
2019-02-10T04:58:59.376Z,71.88
2019-02-10T05:01:27.962Z,72.25
2019-02-10T05:03:56.903Z,71.78
2019-02-10T05:06:25.397Z,72.26
2019-02-10T05:08:53.795Z,71.60
2019-02-10T05:11:22.195Z,72.46
2019-02-10T05:13:50.777Z,72.39
2019-02-10T05:16:19.253Z,72.71
2019-02-10T05:18:47.706Z,72.81
2019-02-10T05:21:16.106Z,72.70
2019-02-10T05:23:44.748Z,72.24
2019-02-10T05:26:13.584Z,72.54
2019-02-10T05:28:42.398Z,72.79
2019-02-10T05:31:10.783Z,72.42
2019-02-10T05:33:39.268Z,72.34
2019-02-10T05:36:07.706Z,72.44
2019-02-10T05:38:36.373Z,72.06
2019-02-10T05:41:04.777Z,71.87
2019-02-10T05:43:33.581Z,71.43
2019-02-10T05:46:01.980Z,70.85
2019-02-10T05:48:30.709Z,71.24
2019-02-10T05:50:59.153Z,71.36
2019-02-10T05:53:27.842Z,71.04
2019-02-10T05:55:56.236Z,70.60
2019-02-10T05:58:24.680Z,70.35
2019-02-10T06:00:53.222Z,69.99
2019-02-10T06:03:21.694Z,69.72
2019-02-10T06:05:50.444Z,69.22
2019-02-10T06:08:18.871Z,69.36
2019-02-10T06:10:47.263Z,69.31
2019-02-10T06:13:16.042Z,69.27
2019-02-10T06:15:44.455Z,69.19
2019-02-10T06:18:12.884Z,69.05
2019-02-10T06:20:41.664Z,69.32
2019-02-10T06:23:10.083Z,69.26
2019-02-10T06:25:38.486Z,69.79
2019-02-10T06:28:06.902Z,69.75
2019-02-10T06:30:35.362Z,70.11
2019-02-10T06:33:04.235Z,70.29
2019-02-10T06:35:32.652Z,70.33
2019-02-10T06:38:01.076Z,70.21
2019-02-10T06:40:29.503Z,70.25
2019-02-10T06:42:58.320Z,69.93
2019-02-10T06:45:26.864Z,69.65
2019-02-10T06:47:55.307Z,69.72
2019-02-10T06:50:24.053Z,69.35
2019-02-10T06:52:52.602Z,69.24
2019-02-10T06:55:21.012Z,69.46
2019-02-10T06:57:49.410Z,69.30
2019-02-10T07:00:36.199Z,69.27
2019-02-10T07:03:41.161Z,69.24
2019-02-10T07:06:10.457Z,69.06
2019-02-10T07:08:38.858Z,68.98
2019-02-10T07:11:07.307Z,68.87
2019-02-10T07:13:38.675Z,68.44
2019-02-10T07:16:45.594Z,68.73
2019-02-10T07:19:50.735Z,68.68
2019-02-10T07:22:34.499Z,68.40
2019-02-10T07:25:17.991Z,68.18
2019-02-10T07:27:58.123Z,68.00
2019-02-10T07:30:41.703Z,67.75
2019-02-10T07:33:16.022Z,67.74
2019-02-10T07:35:59.912Z,67.63
2019-02-10T07:38:52.645Z,67.39
2019-02-10T07:41:36.249Z,67.42
2019-02-10T07:44:40.981Z,67.43
2019-02-10T07:47:21.300Z,67.53
2019-02-10T07:50:01.706Z,67.27
2019-02-10T07:52:44.877Z,67.53
2019-02-10T07:55:25.525Z,67.37
2019-02-10T07:58:31.997Z,67.88
2019-02-10T08:01:18.130Z,67.79
2019-02-10T08:04:06.128Z,67.95
2019-02-10T08:07:12.756Z,68.53
2019-02-10T08:09:49.989Z,68.26
2019-02-10T08:12:21.916Z,68.89
2019-02-10T08:14:59.438Z,68.99
2019-02-10T08:17:45.971Z,68.92
2019-02-10T08:20:32.501Z,69.21
2019-02-10T08:23:12.777Z,69.79
2019-02-10T08:26:02.397Z,69.75
2019-02-10T08:28:39.822Z,70.66
2019-02-10T08:31:20.309Z,70.31
2019-02-10T08:34:12.718Z,70.37
2019-02-10T08:36:56.856Z,70.26
2019-02-10T08:39:37.520Z,70.17
2019-02-10T08:42:09.127Z,70.22
2019-02-10T08:44:40.889Z,70.17
2019-02-10T08:47:24.987Z,70.21
2019-02-10T08:50:14.624Z,69.75
2019-02-10T08:52:52.296Z,69.57
2019-02-10T08:55:20.907Z,69.49
2019-02-10T08:57:49.447Z,69.03
2019-02-10T09:00:18.260Z,69.12
2019-02-10T09:02:46.826Z,68.98
2019-02-10T09:05:15.581Z,68.64
2019-02-10T09:07:43.991Z,68.59
2019-02-10T09:10:13.582Z,69.15
2019-02-10T09:12:41.973Z,68.76
2019-02-10T09:15:12.482Z,68.50
2019-02-10T09:17:40.926Z,67.93
2019-02-10T09:20:11.695Z,67.47
2019-02-10T09:22:40.223Z,67.57
2019-02-10T09:25:12.717Z,67.29
2019-02-10T09:27:41.111Z,66.71
2019-02-10T09:30:14.152Z,66.88
2019-02-10T09:32:42.947Z,66.33
2019-02-10T09:35:11.648Z,66.59
2019-02-10T09:37:41.897Z,65.93
2019-02-10T09:40:13.436Z,66.63
2019-02-10T09:42:42.206Z,66.77
2019-02-10T09:45:12.483Z,67.42
2019-02-10T09:47:41.048Z,66.84
2019-02-10T09:50:12.652Z,66.93
2019-02-10T09:52:41.130Z,66.48
2019-02-10T09:55:09.851Z,66.17
2019-02-10T09:57:38.288Z,65.60
2019-02-10T10:00:14.771Z,65.19
2019-02-10T10:02:43.287Z,65.05
2019-02-10T10:05:13.357Z,64.62
2019-02-10T10:07:41.806Z,64.71
2019-02-10T10:10:12.959Z,64.49
2019-02-10T10:12:41.776Z,64.52
2019-02-10T10:15:13.410Z,64.65
2019-02-10T10:17:41.960Z,64.18
2019-02-10T10:20:16.074Z,64.22
2019-02-10T10:22:44.484Z,64.51
2019-02-10T10:25:12.985Z,64.32
2019-02-10T10:27:41.569Z,63.96
2019-02-10T10:30:15.561Z,64.29
2019-02-10T10:32:44.006Z,64.29
2019-02-10T10:35:12.601Z,64.30
2019-02-10T10:37:42.103Z,64.46
2019-02-10T10:40:11.547Z,64.49
2019-02-10T10:42:39.980Z,65.14
2019-02-10T10:45:11.756Z,65.70
2019-02-10T10:47:40.153Z,65.56
2019-02-10T10:50:11.237Z,65.69
2019-02-10T10:52:40.030Z,65.89
2019-02-10T10:55:10.732Z,66.15
2019-02-10T10:57:39.355Z,66.22
2019-02-10T11:00:13.772Z,66.43
2019-02-10T11:02:44.054Z,67.23
2019-02-10T11:05:12.462Z,68.02
2019-02-10T11:07:40.979Z,68.23
2019-02-10T11:10:12.132Z,68.48
2019-02-10T11:12:40.535Z,68.41
2019-02-10T11:15:16.899Z,68.90
2019-02-10T11:17:45.331Z,68.96
2019-02-10T11:20:13.854Z,69.36
2019-02-10T11:22:42.756Z,69.99
2019-02-10T11:25:12.409Z,70.24
2019-02-10T11:27:40.860Z,70.66
2019-02-10T11:30:16.002Z,70.93
2019-02-10T11:32:45.758Z,71.56
2019-02-10T11:35:14.272Z,71.97
2019-02-10T11:37:44.367Z,72.43
2019-02-10T11:40:13.607Z,73.00
2019-02-10T11:42:42.044Z,73.72
2019-02-10T11:45:14.902Z,73.94
2019-02-10T11:47:43.738Z,74.13
2019-02-10T11:50:14.247Z,74.73
2019-02-10T11:52:43.053Z,75.69
2019-02-10T11:55:11.902Z,76.05
2019-02-10T11:57:40.351Z,77.10
2019-02-10T12:00:14.618Z,77.99
2019-02-10T12:02:43.230Z,78.89
2019-02-10T12:05:12.250Z,78.97
2019-02-10T12:07:41.032Z,79.67
2019-02-10T12:10:13.425Z,79.99
2019-02-10T12:12:41.862Z,80.01
2019-02-10T12:15:15.371Z,80.49
2019-02-10T12:17:43.778Z,79.99
2019-02-10T12:20:13.987Z,80.33
2019-02-10T12:22:49.937Z,79.80
2019-02-10T12:25:13.169Z,80.25
2019-02-10T12:27:42.010Z,80.67
2019-02-10T12:30:15.626Z,80.24
2019-02-10T12:32:44.397Z,80.29
2019-02-10T12:35:13.259Z,80.82
2019-02-10T12:37:42.091Z,80.50
2019-02-10T12:40:14.106Z,80.13
2019-02-10T12:42:42.869Z,80.01
2019-02-10T12:45:13.535Z,79.72
2019-02-10T12:47:42.116Z,79.66
2019-02-10T12:50:16.750Z,79.28
2019-02-10T12:52:45.518Z,78.74
2019-02-10T12:55:14.172Z,78.97
2019-02-10T12:57:42.981Z,77.92
2019-02-10T13:00:14.504Z,77.64
2019-02-10T13:02:43.018Z,77.14
2019-02-10T13:05:12.108Z,77.01
2019-02-10T13:07:41.029Z,76.83
2019-02-10T13:10:12.177Z,76.72
2019-02-10T13:12:40.780Z,76.44
2019-02-10T13:15:11.228Z,74.56
2019-02-10T13:17:40.017Z,74.63
2019-02-10T13:20:13.254Z,74.30
2019-02-10T13:22:42.273Z,71.33
2019-02-10T13:25:12.143Z,71.26
2019-02-10T13:27:41.680Z,70.22
2019-02-10T13:30:14.886Z,69.89
2019-02-10T13:32:43.675Z,70.30
2019-02-10T13:35:16.546Z,71.26
2019-02-10T13:37:45.074Z,72.00
2019-02-10T13:40:22.024Z,72.26
2019-02-10T13:42:50.733Z,72.33
2019-02-10T13:45:19.594Z,72.54
2019-02-10T13:47:51.615Z,72.39
2019-02-10T13:50:21.200Z,72.32
2019-02-10T13:52:49.918Z,72.23
2019-02-10T13:55:18.421Z,71.88
2019-02-10T13:57:47.103Z,71.30
2019-02-10T14:00:20.816Z,71.35
2019-02-10T14:02:49.463Z,72.10
2019-02-10T14:05:18.337Z,72.02
2019-02-10T14:07:47.162Z,69.49
2019-02-10T14:10:25.418Z,70.55
2019-02-10T14:12:48.846Z,70.45
2019-02-10T14:15:20.881Z,68.26
2019-02-10T14:17:49.956Z,69.73
2019-02-10T14:20:21.987Z,70.36
2019-02-10T14:22:50.573Z,70.65
2019-02-10T14:25:19.456Z,70.98
2019-02-10T14:27:48.299Z,72.42
2019-02-10T14:30:19.369Z,72.39
2019-02-10T14:32:48.265Z,73.11
2019-02-10T14:35:18.083Z,73.03
2019-02-10T14:37:47.740Z,72.99
2019-02-10T14:40:16.250Z,73.78
2019-02-10T14:42:44.753Z,74.17
2019-02-10T14:45:14.823Z,74.47
2019-02-10T14:47:43.780Z,74.40
2019-02-10T14:50:19.054Z,73.75
2019-02-10T14:52:47.566Z,73.62
2019-02-10T14:55:16.017Z,73.26
2019-02-10T14:57:44.609Z,73.43
2019-02-10T15:00:15.799Z,73.51
2019-02-10T15:02:44.866Z,73.17
2019-02-10T15:05:31.970Z,72.85
2019-02-10T15:08:00.568Z,72.55
2019-02-10T15:10:32.137Z,73.05
2019-02-10T15:13:01.203Z,73.04
2019-02-10T15:15:29.616Z,72.86
2019-02-10T15:17:58.305Z,73.95
2019-02-10T15:20:27.149Z,73.39
2019-02-10T15:22:56.097Z,72.35
2019-02-10T15:25:24.828Z,73.03
2019-02-10T15:27:53.653Z,73.00
2019-02-10T15:30:22.549Z,72.91
2019-02-10T15:32:51.059Z,73.01
2019-02-10T15:35:19.522Z,73.18
2019-02-10T15:37:48.271Z,73.11
2019-02-10T15:40:17.045Z,73.11
2019-02-10T15:42:45.981Z,73.09
2019-02-10T15:45:14.861Z,72.52
2019-02-10T15:47:43.659Z,72.76
2019-02-10T15:50:14.168Z,72.25
2019-02-10T15:52:42.844Z,72.87
2019-02-10T15:55:14.957Z,72.60
2019-02-10T15:57:43.668Z,71.83
2019-02-10T16:00:25.114Z,72.09
2019-02-10T16:02:53.830Z,71.50
2019-02-10T16:05:22.683Z,71.53
2019-02-10T16:07:51.546Z,71.30
2019-02-10T16:10:20.410Z,70.44
2019-02-10T16:12:49.223Z,71.17
2019-02-10T16:15:18.037Z,70.22
2019-02-10T16:17:46.819Z,70.72
2019-02-10T16:20:16.072Z,70.66
2019-02-10T16:22:44.935Z,70.68
2019-02-10T16:25:13.644Z,70.42
2019-02-10T16:27:42.572Z,69.86
2019-02-10T16:30:19.110Z,70.12
2019-02-10T16:32:49.949Z,70.04
2019-02-10T16:35:18.671Z,68.98
2019-02-10T16:37:47.625Z,68.20
2019-02-10T16:40:19.619Z,67.58
2019-02-10T16:42:50.067Z,67.40
2019-02-10T16:45:18.939Z,67.35
2019-02-10T16:47:48.045Z,67.12
2019-02-10T16:50:17.772Z,67.89
2019-02-10T16:52:46.435Z,68.16
2019-02-10T16:55:21.674Z,68.76
2019-02-10T16:57:50.606Z,68.43
2019-02-10T17:00:19.550Z,67.92
2019-02-10T17:02:48.567Z,68.05
2019-02-10T17:05:17.460Z,68.60
2019-02-10T17:07:46.314Z,67.41
2019-02-10T17:10:16.903Z,68.46
2019-02-10T17:12:45.443Z,69.30
2019-02-10T17:15:14.353Z,69.81
2019-02-10T17:17:47.874Z,70.01
2019-02-10T17:20:16.990Z,70.10
2019-02-10T17:22:45.515Z,70.60
2019-02-10T17:25:19.828Z,71.25
2019-02-10T17:27:48.432Z,70.98
2019-02-10T17:30:17.082Z,70.34
2019-02-10T17:32:45.544Z,69.22
2019-02-10T17:35:15.136Z,67.40
2019-02-10T17:37:43.638Z,67.10
2019-02-10T17:40:23.306Z,67.19
2019-02-10T17:42:51.898Z,67.71
2019-02-10T17:45:20.761Z,68.31
2019-02-10T17:47:49.720Z,68.26
2019-02-10T17:50:20.155Z,67.99
2019-02-10T17:52:48.663Z,67.30
2019-02-10T17:55:17.395Z,67.00
2019-02-10T17:57:47.898Z,66.97
2019-02-10T18:00:21.813Z,66.76
2019-02-10T18:02:50.355Z,66.27
2019-02-10T18:05:18.929Z,65.98
2019-02-10T18:07:47.742Z,66.45
2019-02-10T18:10:16.609Z,66.82
2019-02-10T18:12:45.294Z,67.39
2019-02-10T18:15:15.878Z,67.70
2019-02-10T18:18:01.744Z,68.57
2019-02-10T18:20:34.754Z,69.41
2019-02-10T18:23:21.633Z,69.96
2019-02-10T18:26:00.675Z,69.14
2019-02-10T18:28:41.268Z,69.67
2019-02-10T18:31:11.830Z,69.88
2019-02-10T18:33:43.667Z,70.00
2019-02-10T18:36:41.769Z,70.19
2019-02-10T18:39:12.373Z,69.76
2019-02-10T18:41:49.252Z,69.62
2019-02-10T18:44:28.371Z,69.12
2019-02-10T18:46:58.577Z,69.02
2019-02-10T18:49:44.159Z,68.97
2019-02-10T18:52:17.231Z,68.32
2019-02-10T18:54:52.327Z,68.06
2019-02-10T18:57:35.153Z,68.02
2019-02-10T19:00:15.071Z,69.09
2019-02-10T19:02:50.581Z,71.69
2019-02-10T19:05:36.948Z,72.70
2019-02-10T19:08:08.296Z,71.88
2019-02-10T19:10:54.537Z,71.84
2019-02-10T19:13:25.539Z,71.92
2019-02-10T19:16:01.303Z,71.54
2019-02-10T19:18:34.620Z,70.96
2019-02-10T19:21:11.423Z,71.22
2019-02-10T19:23:57.886Z,71.28
2019-02-10T19:26:47.334Z,71.46
2019-02-10T19:29:29.844Z,71.51
2019-02-10T19:32:17.392Z,71.87
2019-02-10T19:34:48.158Z,71.50
2019-02-10T19:37:28.522Z,71.66
2019-02-10T19:40:15.151Z,71.79
2019-02-10T19:43:03.696Z,71.51
2019-02-10T19:45:36.911Z,71.27
2019-02-10T19:48:10.171Z,71.41
2019-02-10T19:51:01.656Z,70.94
2019-02-10T19:53:35.078Z,70.70
2019-02-10T19:56:05.555Z,70.85
2019-02-10T19:58:38.815Z,70.45
2019-02-10T20:01:09.112Z,69.52
2019-02-10T20:03:54.687Z,69.49
2019-02-10T20:06:33.977Z,69.02
2019-02-10T20:09:17.104Z,68.54
2019-02-10T20:12:03.907Z,68.67
2019-02-10T20:14:43.589Z,68.71
2019-02-10T20:17:25.743Z,68.81
2019-02-10T20:20:02.456Z,69.06
2019-02-10T20:22:35.741Z,69.26
2019-02-10T20:25:06.942Z,69.22
2019-02-10T20:27:53.397Z,69.38
2019-02-10T20:30:32.388Z,69.51
2019-02-10T20:33:16.808Z,69.54
2019-02-10T20:35:48.854Z,69.73
2019-02-10T20:38:39.028Z,69.82
2019-02-10T20:41:15.607Z,69.69
2019-02-10T20:43:48.781Z,69.40
2019-02-10T20:46:22.558Z,69.98
2019-02-10T20:48:52.883Z,70.03
2019-02-10T20:51:40.695Z,70.29
2019-02-10T20:54:17.722Z,69.96
2019-02-10T20:56:50.854Z,70.17
2019-02-10T20:59:30.362Z,69.95
2019-02-10T21:02:00.588Z,69.82
2019-02-10T21:04:40.191Z,70.38
2019-02-10T21:07:30.009Z,70.61
2019-02-10T21:10:03.434Z,70.21
2019-02-10T21:12:50.071Z,70.15
2019-02-10T21:15:25.918Z,70.34
2019-02-10T21:18:00.121Z,69.65
2019-02-10T21:20:36.702Z,69.52
2019-02-10T21:23:09.764Z,69.48
2019-02-10T21:25:43.981Z,69.46
2019-02-10T21:28:17.385Z,69.21
2019-02-10T21:31:06.097Z,69.25
2019-02-10T21:33:52.887Z,69.57
2019-02-10T21:36:23.378Z,69.58
2019-02-10T21:39:10.015Z,70.04
2019-02-10T21:41:40.245Z,69.42
2019-02-10T21:44:10.442Z,69.75
2019-02-10T21:46:40.634Z,69.37
2019-02-10T21:49:11.203Z,69.67
2019-02-10T21:51:39.856Z,69.84
2019-02-10T21:54:08.566Z,69.17
2019-02-10T21:56:37.130Z,69.30
2019-02-10T21:59:05.676Z,69.20
2019-02-10T22:01:34.290Z,69.25
2019-02-10T22:04:03.254Z,69.28
2019-02-10T22:06:31.663Z,69.39
2019-02-10T22:09:00.144Z,69.34
2019-02-10T22:11:28.553Z,69.52
2019-02-10T22:13:57.344Z,69.33
2019-02-10T22:16:25.751Z,69.35
2019-02-10T22:18:54.492Z,69.59
2019-02-10T22:21:22.953Z,69.27
2019-02-10T22:23:51.486Z,69.52
2019-02-10T22:26:19.901Z,69.77
2019-02-10T22:28:48.433Z,70.34
2019-02-10T22:31:18.765Z,70.41
2019-02-10T22:33:51.458Z,70.57
2019-02-10T22:36:17.816Z,70.55
2019-02-10T22:38:46.241Z,71.16
2019-02-10T22:41:15.121Z,71.02
2019-02-10T22:43:43.564Z,71.31
2019-02-10T22:46:12.338Z,71.31
2019-02-10T22:48:40.754Z,69.97
2019-02-10T22:51:10.184Z,69.26
2019-02-10T22:53:39.117Z,68.76
2019-02-10T22:56:07.518Z,69.10
2019-02-10T22:58:36.305Z,68.79
2019-02-10T23:01:06.574Z,68.20
2019-02-10T23:03:35.093Z,68.53
2019-02-10T23:06:03.578Z,68.19
2019-02-10T23:08:32.063Z,67.34
2019-02-10T23:11:00.520Z,66.72
2019-02-10T23:13:28.966Z,66.57
2019-02-10T23:15:57.363Z,66.42
2019-02-10T23:18:26.064Z,66.27
2019-02-10T23:20:54.464Z,65.95
2019-02-10T23:23:23.180Z,66.29
2019-02-10T23:25:51.610Z,66.45
2019-02-10T23:28:20.515Z,66.43
2019-02-10T23:30:49.411Z,66.32
2019-02-10T23:33:18.545Z,65.98
2019-02-10T23:35:47.555Z,66.47
2019-02-10T23:38:15.995Z,66.06
2019-02-10T23:40:44.772Z,66.56
2019-02-10T23:43:13.254Z,66.13
2019-02-10T23:45:41.650Z,66.07
2019-02-10T23:48:10.092Z,65.68
2019-02-10T23:50:38.834Z,64.70
2019-02-10T23:53:07.439Z,65.27
2019-02-10T23:55:35.845Z,65.17
2019-02-10T23:58:04.368Z,64.87
